sensor_id;sensor_type;location;lat;lon;timestamp;P1;durP1;ratioP1;P2;durP2;ratioP2
71639;SDS011;60912;48.968;10.124;2024-02-14T00:00:26;9.10;;;5.07;;
71639;SDS011;60912;48.968;10.124;2024-02-14T00:02:51;9.77;;;4.57;;
71639;SDS011;60912;48.968;10.124;2024-02-14T00:05:17;10.27;;;4.67;;
71639;SDS011;60912;48.968;10.124;2024-02-14T00:07:42;9.67;;;4.50;;
71639;SDS011;60912;48.968;10.124;2024-02-14T00:10:08;8.07;;;3.88;;
71639;SDS011;60912;48.968;10.124;2024-02-14T00:12:34;7.37;;;3.57;;
71639;SDS011;60912;48.968;10.124;2024-02-14T00:15:01;7.93;;;3.90;;
71639;SDS011;60912;48.968;10.124;2024-02-14T00:17:28;6.82;;;3.45;;
71639;SDS011;60912;48.968;10.124;2024-02-14T00:19:53;8.43;;;3.87;;
71639;SDS011;60912;48.968;10.124;2024-02-14T00:22:18;8.50;;;3.90;;
71639;SDS011;60912;48.968;10.124;2024-02-14T00:24:44;8.67;;;3.63;;
71639;SDS011;60912;48.968;10.124;2024-02-14T00:27:09;6.82;;;3.28;;
71639;SDS011;60912;48.968;10.124;2024-02-14T00:29:34;7.67;;;3.50;;
71639;SDS011;60912;48.968;10.124;2024-02-14T00:32:00;7.77;;;3.73;;
71639;SDS011;60912;48.968;10.124;2024-02-14T00:34:26;6.78;;;3.40;;
71639;SDS011;60912;48.968;10.124;2024-02-14T00:36:51;6.60;;;3.60;;
71639;SDS011;60912;48.968;10.124;2024-02-14T00:39:17;7.20;;;3.40;;
71639;SDS011;60912;48.968;10.124;2024-02-14T00:41:42;8.57;;;3.40;;
71639;SDS011;60912;48.968;10.124;2024-02-14T00:44:07;6.70;;;3.67;;
71639;SDS011;60912;48.968;10.124;2024-02-14T00:46:33;9.40;;;3.63;;
71639;SDS011;60912;48.968;10.124;2024-02-14T00:48:58;6.50;;;3.07;;
71639;SDS011;60912;48.968;10.124;2024-02-14T00:51:24;6.47;;;3.03;;
71639;SDS011;60912;48.968;10.124;2024-02-14T00:53:50;7.20;;;2.93;;
71639;SDS011;60912;48.968;10.124;2024-02-14T00:56:16;7.07;;;3.28;;
71639;SDS011;60912;48.968;10.124;2024-02-14T00:58:42;7.07;;;3.33;;
71639;SDS011;60912;48.968;10.124;2024-02-14T01:01:08;6.10;;;3.10;;
71639;SDS011;60912;48.968;10.124;2024-02-14T01:03:33;6.87;;;3.30;;
71639;SDS011;60912;48.968;10.124;2024-02-14T01:05:59;7.30;;;3.23;;
71639;SDS011;60912;48.968;10.124;2024-02-14T01:08:24;7.73;;;3.80;;
71639;SDS011;60912;48.968;10.124;2024-02-14T01:10:49;6.00;;;3.33;;
71639;SDS011;60912;48.968;10.124;2024-02-14T01:13:16;7.93;;;3.60;;
71639;SDS011;60912;48.968;10.124;2024-02-14T01:15:44;5.68;;;3.50;;
71639;SDS011;60912;48.968;10.124;2024-02-14T01:18:10;5.77;;;3.43;;
71639;SDS011;60912;48.968;10.124;2024-02-14T01:20:35;5.07;;;3.00;;
71639;SDS011;60912;48.968;10.124;2024-02-14T01:23:02;6.70;;;3.60;;
71639;SDS011;60912;48.968;10.124;2024-02-14T01:25:27;9.00;;;3.47;;
71639;SDS011;60912;48.968;10.124;2024-02-14T01:27:53;7.83;;;4.13;;
71639;SDS011;60912;48.968;10.124;2024-02-14T01:30:18;7.63;;;3.50;;
71639;SDS011;60912;48.968;10.124;2024-02-14T01:32:44;8.17;;;4.07;;
71639;SDS011;60912;48.968;10.124;2024-02-14T01:35:09;6.82;;;3.50;;
71639;SDS011;60912;48.968;10.124;2024-02-14T01:37:35;7.63;;;3.73;;
71639;SDS011;60912;48.968;10.124;2024-02-14T01:40:00;9.13;;;3.97;;
71639;SDS011;60912;48.968;10.124;2024-02-14T01:42:26;8.98;;;3.85;;
71639;SDS011;60912;48.968;10.124;2024-02-14T01:44:52;6.03;;;3.57;;
71639;SDS011;60912;48.968;10.124;2024-02-14T01:47:19;6.50;;;3.33;;
71639;SDS011;60912;48.968;10.124;2024-02-14T01:49:45;6.07;;;3.65;;
71639;SDS011;60912;48.968;10.124;2024-02-14T01:52:12;6.32;;;3.20;;
71639;SDS011;60912;48.968;10.124;2024-02-14T01:54:38;5.20;;;3.03;;
71639;SDS011;60912;48.968;10.124;2024-02-14T01:57:04;7.28;;;2.92;;
71639;SDS011;60912;48.968;10.124;2024-02-14T01:59:30;6.28;;;3.20;;
71639;SDS011;60912;48.968;10.124;2024-02-14T02:01:55;7.20;;;3.37;;
71639;SDS011;60912;48.968;10.124;2024-02-14T02:04:21;8.33;;;3.77;;
71639;SDS011;60912;48.968;10.124;2024-02-14T02:06:46;6.15;;;3.20;;
71639;SDS011;60912;48.968;10.124;2024-02-14T02:09:12;7.23;;;3.20;;
71639;SDS011;60912;48.968;10.124;2024-02-14T02:11:50;6.63;;;3.37;;
71639;SDS011;60912;48.968;10.124;2024-02-14T02:14:18;6.75;;;3.35;;
71639;SDS011;60912;48.968;10.124;2024-02-14T02:16:44;7.57;;;3.03;;
71639;SDS011;60912;48.968;10.124;2024-02-14T02:19:11;7.97;;;3.40;;
71639;SDS011;60912;48.968;10.124;2024-02-14T02:21:36;6.07;;;3.03;;
71639;SDS011;60912;48.968;10.124;2024-02-14T02:24:02;7.13;;;3.27;;
71639;SDS011;60912;48.968;10.124;2024-02-14T02:26:28;6.70;;;3.28;;
71639;SDS011;60912;48.968;10.124;2024-02-14T02:28:53;6.50;;;3.00;;
71639;SDS011;60912;48.968;10.124;2024-02-14T02:31:22;7.57;;;3.30;;
71639;SDS011;60912;48.968;10.124;2024-02-14T02:33:47;6.68;;;3.03;;
71639;SDS011;60912;48.968;10.124;2024-02-14T02:36:12;6.37;;;3.27;;
71639;SDS011;60912;48.968;10.124;2024-02-14T02:38:38;7.23;;;3.50;;
71639;SDS011;60912;48.968;10.124;2024-02-14T02:41:04;6.28;;;2.83;;
71639;SDS011;60912;48.968;10.124;2024-02-14T02:43:33;7.18;;;2.72;;
71639;SDS011;60912;48.968;10.124;2024-02-14T02:45:59;8.07;;;3.30;;
71639;SDS011;60912;48.968;10.124;2024-02-14T02:48:24;7.67;;;3.20;;
71639;SDS011;60912;48.968;10.124;2024-02-14T02:50:49;8.43;;;3.40;;
71639;SDS011;60912;48.968;10.124;2024-02-14T02:53:15;7.57;;;3.53;;
71639;SDS011;60912;48.968;10.124;2024-02-14T02:55:41;7.72;;;3.10;;
71639;SDS011;60912;48.968;10.124;2024-02-14T02:58:07;5.87;;;3.33;;
71639;SDS011;60912;48.968;10.124;2024-02-14T03:00:33;5.60;;;3.13;;
71639;SDS011;60912;48.968;10.124;2024-02-14T03:02:58;6.07;;;3.13;;
71639;SDS011;60912;48.968;10.124;2024-02-14T03:05:24;5.23;;;2.97;;
71639;SDS011;60912;48.968;10.124;2024-02-14T03:07:50;8.93;;;3.25;;
71639;SDS011;60912;48.968;10.124;2024-02-14T03:10:18;5.60;;;3.05;;
71639;SDS011;60912;48.968;10.124;2024-02-14T03:12:44;4.85;;;2.63;;
71639;SDS011;60912;48.968;10.124;2024-02-14T03:15:13;4.60;;;2.80;;
71639;SDS011;60912;48.968;10.124;2024-02-14T03:17:39;7.95;;;3.10;;
71639;SDS011;60912;48.968;10.124;2024-02-14T03:20:04;8.43;;;3.43;;
71639;SDS011;60912;48.968;10.124;2024-02-14T03:22:38;6.40;;;2.90;;
71639;SDS011;60912;48.968;10.124;2024-02-14T03:25:09;6.05;;;2.78;;
71639;SDS011;60912;48.968;10.124;2024-02-14T03:27:44;6.38;;;2.60;;
71639;SDS011;60912;48.968;10.124;2024-02-14T03:30:12;6.70;;;2.80;;
71639;SDS011;60912;48.968;10.124;2024-02-14T03:32:38;5.28;;;2.60;;
71639;SDS011;60912;48.968;10.124;2024-02-14T03:35:03;5.30;;;2.40;;
71639;SDS011;60912;48.968;10.124;2024-02-14T03:37:29;5.70;;;2.80;;
71639;SDS011;60912;48.968;10.124;2024-02-14T03:39:54;6.47;;;2.73;;
71639;SDS011;60912;48.968;10.124;2024-02-14T03:42:20;6.63;;;2.80;;
71639;SDS011;60912;48.968;10.124;2024-02-14T03:44:45;7.57;;;3.13;;
71639;SDS011;60912;48.968;10.124;2024-02-14T03:47:11;5.40;;;2.73;;
71639;SDS011;60912;48.968;10.124;2024-02-14T03:49:38;5.97;;;2.80;;
71639;SDS011;60912;48.968;10.124;2024-02-14T03:52:05;6.32;;;2.80;;
71639;SDS011;60912;48.968;10.124;2024-02-14T03:54:34;6.13;;;2.90;;
71639;SDS011;60912;48.968;10.124;2024-02-14T03:57:03;4.47;;;2.47;;
71639;SDS011;60912;48.968;10.124;2024-02-14T03:59:30;5.95;;;2.90;;
71639;SDS011;60912;48.968;10.124;2024-02-14T04:01:55;7.70;;;4.60;;
71639;SDS011;60912;48.968;10.124;2024-02-14T04:04:21;8.37;;;4.10;;
71639;SDS011;60912;48.968;10.124;2024-02-14T04:06:46;5.53;;;3.65;;
71639;SDS011;60912;48.968;10.124;2024-02-14T04:09:12;5.18;;;3.00;;
71639;SDS011;60912;48.968;10.124;2024-02-14T04:11:38;5.47;;;2.60;;
71639;SDS011;60912;48.968;10.124;2024-02-14T04:14:03;6.60;;;2.80;;
71639;SDS011;60912;48.968;10.124;2024-02-14T04:16:28;4.83;;;2.60;;
71639;SDS011;60912;48.968;10.124;2024-02-14T04:18:54;7.17;;;2.60;;
71639;SDS011;60912;48.968;10.124;2024-02-14T04:21:21;5.65;;;2.47;;
71639;SDS011;60912;48.968;10.124;2024-02-14T04:23:46;7.00;;;3.10;;
71639;SDS011;60912;48.968;10.124;2024-02-14T04:26:21;5.53;;;2.57;;
71639;SDS011;60912;48.968;10.124;2024-02-14T04:28:46;6.55;;;2.60;;
71639;SDS011;60912;48.968;10.124;2024-02-14T04:31:11;6.87;;;2.60;;
71639;SDS011;60912;48.968;10.124;2024-02-14T04:33:37;5.87;;;2.87;;
71639;SDS011;60912;48.968;10.124;2024-02-14T04:36:02;5.83;;;2.40;;
71639;SDS011;60912;48.968;10.124;2024-02-14T04:38:28;4.82;;;2.78;;
71639;SDS011;60912;48.968;10.124;2024-02-14T04:40:54;5.63;;;2.58;;
71639;SDS011;60912;48.968;10.124;2024-02-14T04:43:21;7.07;;;2.63;;
71639;SDS011;60912;48.968;10.124;2024-02-14T04:45:47;6.68;;;2.60;;
71639;SDS011;60912;48.968;10.124;2024-02-14T04:48:13;7.27;;;3.00;;
71639;SDS011;60912;48.968;10.124;2024-02-14T04:50:38;7.53;;;2.90;;
71639;SDS011;60912;48.968;10.124;2024-02-14T04:53:03;6.70;;;2.90;;
71639;SDS011;60912;48.968;10.124;2024-02-14T04:55:29;5.23;;;2.60;;
71639;SDS011;60912;48.968;10.124;2024-02-14T04:57:54;7.33;;;2.67;;
71639;SDS011;60912;48.968;10.124;2024-02-14T05:00:19;4.90;;;2.57;;
71639;SDS011;60912;48.968;10.124;2024-02-14T05:02:45;7.03;;;2.45;;
71639;SDS011;60912;48.968;10.124;2024-02-14T05:05:10;6.07;;;2.33;;
71639;SDS011;60912;48.968;10.124;2024-02-14T05:07:36;4.90;;;2.50;;
71639;SDS011;60912;48.968;10.124;2024-02-14T05:10:01;4.47;;;2.60;;
71639;SDS011;60912;48.968;10.124;2024-02-14T05:12:27;5.43;;;2.27;;
71639;SDS011;60912;48.968;10.124;2024-02-14T05:14:52;4.77;;;2.40;;
71639;SDS011;60912;48.968;10.124;2024-02-14T05:17:18;5.27;;;2.63;;
71639;SDS011;60912;48.968;10.124;2024-02-14T05:19:43;7.03;;;2.60;;
71639;SDS011;60912;48.968;10.124;2024-02-14T05:22:08;5.87;;;2.67;;
71639;SDS011;60912;48.968;10.124;2024-02-14T05:24:34;5.80;;;3.00;;
71639;SDS011;60912;48.968;10.124;2024-02-14T05:27:02;8.48;;;2.88;;
71639;SDS011;60912;48.968;10.124;2024-02-14T05:29:28;7.35;;;2.78;;
71639;SDS011;60912;48.968;10.124;2024-02-14T05:31:53;5.00;;;2.03;;
71639;SDS011;60912;48.968;10.124;2024-02-14T05:34:20;4.80;;;1.90;;
71639;SDS011;60912;48.968;10.124;2024-02-14T05:36:48;5.93;;;2.30;;
71639;SDS011;60912;48.968;10.124;2024-02-14T05:39:14;5.37;;;2.00;;
71639;SDS011;60912;48.968;10.124;2024-02-14T05:41:39;6.83;;;2.27;;
71639;SDS011;60912;48.968;10.124;2024-02-14T05:44:05;5.88;;;2.20;;
71639;SDS011;60912;48.968;10.124;2024-02-14T05:46:30;5.17;;;2.00;;
71639;SDS011;60912;48.968;10.124;2024-02-14T05:48:55;5.87;;;2.30;;
71639;SDS011;60912;48.968;10.124;2024-02-14T05:51:22;4.85;;;2.05;;
71639;SDS011;60912;48.968;10.124;2024-02-14T05:53:48;5.38;;;2.47;;
71639;SDS011;60912;48.968;10.124;2024-02-14T05:56:13;6.17;;;2.43;;
71639;SDS011;60912;48.968;10.124;2024-02-14T05:58:38;4.53;;;2.10;;
71639;SDS011;60912;48.968;10.124;2024-02-14T06:01:04;3.83;;;2.00;;
71639;SDS011;60912;48.968;10.124;2024-02-14T06:03:29;7.37;;;2.20;;
71639;SDS011;60912;48.968;10.124;2024-02-14T06:05:55;6.35;;;2.45;;
71639;SDS011;60912;48.968;10.124;2024-02-14T06:08:20;6.93;;;2.50;;
71639;SDS011;60912;48.968;10.124;2024-02-14T06:10:45;5.37;;;2.37;;
71639;SDS011;60912;48.968;10.124;2024-02-14T06:13:11;5.30;;;2.93;;
71639;SDS011;60912;48.968;10.124;2024-02-14T06:15:36;11.13;;;3.23;;
71639;SDS011;60912;48.968;10.124;2024-02-14T06:18:01;7.33;;;3.20;;
71639;SDS011;60912;48.968;10.124;2024-02-14T06:20:27;5.75;;;3.10;;
71639;SDS011;60912;48.968;10.124;2024-02-14T06:22:52;7.37;;;3.10;;
71639;SDS011;60912;48.968;10.124;2024-02-14T06:25:17;6.93;;;3.23;;
71639;SDS011;60912;48.968;10.124;2024-02-14T06:27:43;9.77;;;3.80;;
71639;SDS011;60912;48.968;10.124;2024-02-14T06:30:08;12.87;;;4.60;;
71639;SDS011;60912;48.968;10.124;2024-02-14T06:32:34;15.57;;;4.78;;
71639;SDS011;60912;48.968;10.124;2024-02-14T06:35:00;11.63;;;4.87;;
71639;SDS011;60912;48.968;10.124;2024-02-14T06:37:25;13.85;;;5.60;;
71639;SDS011;60912;48.968;10.124;2024-02-14T06:39:51;18.37;;;5.80;;
71639;SDS011;60912;48.968;10.124;2024-02-14T06:42:16;12.10;;;5.53;;
71639;SDS011;60912;48.968;10.124;2024-02-14T06:44:42;11.73;;;5.75;;
71639;SDS011;60912;48.968;10.124;2024-02-14T06:47:07;10.07;;;4.97;;
71639;SDS011;60912;48.968;10.124;2024-02-14T06:49:33;11.93;;;4.80;;
71639;SDS011;60912;48.968;10.124;2024-02-14T06:51:58;9.80;;;4.47;;
71639;SDS011;60912;48.968;10.124;2024-02-14T06:54:23;10.77;;;5.03;;
71639;SDS011;60912;48.968;10.124;2024-02-14T06:56:48;8.90;;;4.40;;
71639;SDS011;60912;48.968;10.124;2024-02-14T06:59:14;7.97;;;4.20;;
71639;SDS011;60912;48.968;10.124;2024-02-14T07:01:39;7.63;;;3.50;;
71639;SDS011;60912;48.968;10.124;2024-02-14T07:04:05;8.27;;;3.75;;
71639;SDS011;60912;48.968;10.124;2024-02-14T07:06:30;5.83;;;3.23;;
71639;SDS011;60912;48.968;10.124;2024-02-14T07:08:56;7.07;;;3.00;;
71639;SDS011;60912;48.968;10.124;2024-02-14T07:11:21;5.93;;;2.40;;
71639;SDS011;60912;48.968;10.124;2024-02-14T07:13:46;6.43;;;2.53;;
71639;SDS011;60912;48.968;10.124;2024-02-14T07:16:12;6.63;;;2.27;;
71639;SDS011;60912;48.968;10.124;2024-02-14T07:18:37;6.20;;;2.40;;
71639;SDS011;60912;48.968;10.124;2024-02-14T07:21:03;5.82;;;2.22;;
71639;SDS011;60912;48.968;10.124;2024-02-14T07:23:30;5.93;;;2.10;;
71639;SDS011;60912;48.968;10.124;2024-02-14T07:25:57;5.60;;;2.22;;
71639;SDS011;60912;48.968;10.124;2024-02-14T07:28:22;7.47;;;2.30;;
71639;SDS011;60912;48.968;10.124;2024-02-14T07:30:48;9.73;;;4.33;;
71639;SDS011;60912;48.968;10.124;2024-02-14T07:33:13;9.73;;;4.72;;
71639;SDS011;60912;48.968;10.124;2024-02-14T07:35:38;9.93;;;4.40;;
71639;SDS011;60912;48.968;10.124;2024-02-14T07:38:04;8.83;;;4.47;;
71639;SDS011;60912;48.968;10.124;2024-02-14T07:40:30;9.68;;;4.80;;
71639;SDS011;60912;48.968;10.124;2024-02-14T07:42:58;8.00;;;3.90;;
71639;SDS011;60912;48.968;10.124;2024-02-14T07:45:24;7.60;;;4.00;;
71639;SDS011;60912;48.968;10.124;2024-02-14T07:47:50;11.23;;;4.03;;
71639;SDS011;60912;48.968;10.124;2024-02-14T07:50:15;10.35;;;4.10;;
71639;SDS011;60912;48.968;10.124;2024-02-14T07:52:42;7.53;;;3.90;;
71639;SDS011;60912;48.968;10.124;2024-02-14T07:55:08;8.63;;;4.03;;
71639;SDS011;60912;48.968;10.124;2024-02-14T07:57:37;9.02;;;4.18;;
71639;SDS011;60912;48.968;10.124;2024-02-14T08:00:02;7.67;;;4.20;;
71639;SDS011;60912;48.968;10.124;2024-02-14T08:02:28;10.55;;;4.13;;
71639;SDS011;60912;48.968;10.124;2024-02-14T08:04:54;9.27;;;3.72;;
71639;SDS011;60912;48.968;10.124;2024-02-14T08:07:19;10.10;;;4.23;;
71639;SDS011;60912;48.968;10.124;2024-02-14T08:09:45;9.37;;;4.47;;
71639;SDS011;60912;48.968;10.124;2024-02-14T08:12:10;12.50;;;3.90;;
71639;SDS011;60912;48.968;10.124;2024-02-14T08:14:35;6.73;;;3.23;;
71639;SDS011;60912;48.968;10.124;2024-02-14T08:17:01;8.20;;;3.45;;
71639;SDS011;60912;48.968;10.124;2024-02-14T08:19:27;6.77;;;3.00;;
71639;SDS011;60912;48.968;10.124;2024-02-14T08:21:52;6.50;;;2.97;;
71639;SDS011;60912;48.968;10.124;2024-02-14T08:24:22;7.65;;;3.88;;
71639;SDS011;60912;48.968;10.124;2024-02-14T08:26:49;7.70;;;3.00;;
71639;SDS011;60912;48.968;10.124;2024-02-14T08:29:15;7.57;;;3.00;;
71639;SDS011;60912;48.968;10.124;2024-02-14T08:31:40;6.47;;;2.93;;
71639;SDS011;60912;48.968;10.124;2024-02-14T08:34:05;6.07;;;2.97;;
71639;SDS011;60912;48.968;10.124;2024-02-14T08:36:31;6.85;;;3.80;;
71639;SDS011;60912;48.968;10.124;2024-02-14T08:38:56;7.63;;;3.70;;
71639;SDS011;60912;48.968;10.124;2024-02-14T08:41:21;6.03;;;2.90;;
71639;SDS011;60912;48.968;10.124;2024-02-14T08:43:48;7.07;;;2.70;;
71639;SDS011;60912;48.968;10.124;2024-02-14T08:46:13;5.73;;;2.93;;
71639;SDS011;60912;48.968;10.124;2024-02-14T08:48:42;6.53;;;2.90;;
71639;SDS011;60912;48.968;10.124;2024-02-14T08:51:11;5.70;;;2.22;;
71639;SDS011;60912;48.968;10.124;2024-02-14T08:53:38;6.30;;;2.78;;
71639;SDS011;60912;48.968;10.124;2024-02-14T08:56:03;8.17;;;3.03;;
71639;SDS011;60912;48.968;10.124;2024-02-14T08:58:29;7.63;;;2.93;;
71639;SDS011;60912;48.968;10.124;2024-02-14T09:00:54;7.00;;;2.80;;
71639;SDS011;60912;48.968;10.124;2024-02-14T09:03:20;6.63;;;2.33;;
71639;SDS011;60912;48.968;10.124;2024-02-14T09:05:45;10.00;;;2.77;;
71639;SDS011;60912;48.968;10.124;2024-02-14T09:08:11;8.57;;;2.50;;
71639;SDS011;60912;48.968;10.124;2024-02-14T09:10:37;5.72;;;2.05;;
71639;SDS011;60912;48.968;10.124;2024-02-14T09:13:03;6.53;;;2.10;;
71639;SDS011;60912;48.968;10.124;2024-02-14T09:15:29;3.77;;;1.30;;
71639;SDS011;60912;48.968;10.124;2024-02-14T09:17:56;5.18;;;1.00;;
71639;SDS011;60912;48.968;10.124;2024-02-14T09:20:22;2.55;;;0.80;;
71639;SDS011;60912;48.968;10.124;2024-02-14T09:22:47;3.33;;;1.20;;
71639;SDS011;60912;48.968;10.124;2024-02-14T09:25:13;2.60;;;0.90;;
71639;SDS011;60912;48.968;10.124;2024-02-14T09:27:39;4.35;;;1.10;;
71639;SDS011;60912;48.968;10.124;2024-02-14T09:30:06;3.60;;;0.95;;
71639;SDS011;60912;48.968;10.124;2024-02-14T09:32:32;4.27;;;0.90;;
71639;SDS011;60912;48.968;10.124;2024-02-14T09:34:58;5.20;;;0.90;;
71639;SDS011;60912;48.968;10.124;2024-02-14T09:37:24;2.95;;;0.98;;
71639;SDS011;60912;48.968;10.124;2024-02-14T09:39:50;5.37;;;1.20;;
71639;SDS011;60912;48.968;10.124;2024-02-14T09:42:16;3.53;;;1.00;;
71639;SDS011;60912;48.968;10.124;2024-02-14T09:44:44;4.77;;;1.30;;
71639;SDS011;60912;48.968;10.124;2024-02-14T09:47:11;5.50;;;1.30;;
71639;SDS011;60912;48.968;10.124;2024-02-14T09:49:38;3.40;;;1.00;;
71639;SDS011;60912;48.968;10.124;2024-02-14T09:52:04;3.28;;;1.00;;
71639;SDS011;60912;48.968;10.124;2024-02-14T09:54:32;3.92;;;1.08;;
71639;SDS011;60912;48.968;10.124;2024-02-14T09:57:01;4.37;;;0.80;;
71639;SDS011;60912;48.968;10.124;2024-02-14T09:59:27;2.92;;;0.95;;
71639;SDS011;60912;48.968;10.124;2024-02-14T10:01:54;4.43;;;1.00;;
71639;SDS011;60912;48.968;10.124;2024-02-14T10:04:19;4.63;;;1.00;;
71639;SDS011;60912;48.968;10.124;2024-02-14T10:06:45;3.03;;;1.08;;
71639;SDS011;60912;48.968;10.124;2024-02-14T10:09:10;3.57;;;1.27;;
71639;SDS011;60912;48.968;10.124;2024-02-14T10:11:37;4.27;;;0.83;;
71639;SDS011;60912;48.968;10.124;2024-02-14T10:14:02;3.70;;;0.90;;
71639;SDS011;60912;48.968;10.124;2024-02-14T10:16:29;8.43;;;1.00;;
71639;SDS011;60912;48.968;10.124;2024-02-14T10:18:55;3.93;;;1.20;;
71639;SDS011;60912;48.968;10.124;2024-02-14T10:21:21;5.28;;;1.10;;
71639;SDS011;60912;48.968;10.124;2024-02-14T10:23:47;3.42;;;1.20;;
71639;SDS011;60912;48.968;10.124;2024-02-14T10:26:14;4.50;;;1.27;;
71639;SDS011;60912;48.968;10.124;2024-02-14T10:28:43;4.20;;;1.00;;
71639;SDS011;60912;48.968;10.124;2024-02-14T10:31:12;3.85;;;1.10;;
71639;SDS011;60912;48.968;10.124;2024-02-14T10:33:38;3.10;;;1.10;;
71639;SDS011;60912;48.968;10.124;2024-02-14T10:36:05;5.03;;;1.20;;
71639;SDS011;60912;48.968;10.124;2024-02-14T10:38:33;5.90;;;1.10;;
71639;SDS011;60912;48.968;10.124;2024-02-14T10:41:02;6.38;;;1.25;;
71639;SDS011;60912;48.968;10.124;2024-02-14T10:43:28;4.25;;;1.00;;
71639;SDS011;60912;48.968;10.124;2024-02-14T10:45:54;2.28;;;0.70;;
71639;SDS011;60912;48.968;10.124;2024-02-14T10:48:21;4.40;;;1.13;;
71639;SDS011;60912;48.968;10.124;2024-02-14T10:50:50;12.60;;;1.27;;
71639;SDS011;60912;48.968;10.124;2024-02-14T10:53:18;3.45;;;1.10;;
71639;SDS011;60912;48.968;10.124;2024-02-14T10:55:45;3.90;;;1.00;;
71639;SDS011;60912;48.968;10.124;2024-02-14T10:58:12;4.63;;;1.00;;
71639;SDS011;60912;48.968;10.124;2024-02-14T11:00:39;4.25;;;1.10;;
71639;SDS011;60912;48.968;10.124;2024-02-14T11:03:06;3.00;;;0.88;;
71639;SDS011;60912;48.968;10.124;2024-02-14T11:05:42;9.35;;;0.98;;
71639;SDS011;60912;48.968;10.124;2024-02-14T11:08:18;3.20;;;1.00;;
71639;SDS011;60912;48.968;10.124;2024-02-14T11:10:52;3.33;;;0.97;;
71639;SDS011;60912;48.968;10.124;2024-02-14T11:13:20;2.17;;;0.80;;
71639;SDS011;60912;48.968;10.124;2024-02-14T11:15:46;5.30;;;1.05;;
71639;SDS011;60912;48.968;10.124;2024-02-14T11:18:12;3.07;;;1.10;;
71639;SDS011;60912;48.968;10.124;2024-02-14T11:20:37;3.80;;;0.90;;
71639;SDS011;60912;48.968;10.124;2024-02-14T11:23:06;3.80;;;0.90;;
71639;SDS011;60912;48.968;10.124;2024-02-14T11:25:36;3.97;;;1.05;;
71639;SDS011;60912;48.968;10.124;2024-02-14T11:28:17;3.17;;;0.80;;
71639;SDS011;60912;48.968;10.124;2024-02-14T11:30:48;3.47;;;0.87;;
71639;SDS011;60912;48.968;10.124;2024-02-14T11:35:52;2.63;;;1.03;;
71639;SDS011;60912;48.968;10.124;2024-02-14T11:38:19;2.42;;;0.88;;
71639;SDS011;60912;48.968;10.124;2024-02-14T11:40:45;3.17;;;1.10;;
71639;SDS011;60912;48.968;10.124;2024-02-14T11:43:14;2.93;;;1.17;;
71639;SDS011;60912;48.968;10.124;2024-02-14T11:45:44;3.05;;;1.30;;
71639;SDS011;60912;48.968;10.124;2024-02-14T11:48:14;3.15;;;0.70;;
71639;SDS011;60912;48.968;10.124;2024-02-14T11:50:41;2.83;;;1.02;;
71639;SDS011;60912;48.968;10.124;2024-02-14T11:53:11;4.25;;;1.30;;
71639;SDS011;60912;48.968;10.124;2024-02-14T11:55:38;3.00;;;0.90;;
71639;SDS011;60912;48.968;10.124;2024-02-14T11:58:08;2.67;;;0.82;;
71639;SDS011;60912;48.968;10.124;2024-02-14T12:00:36;3.00;;;0.80;;
71639;SDS011;60912;48.968;10.124;2024-02-14T12:03:03;3.63;;;1.20;;
71639;SDS011;60912;48.968;10.124;2024-02-14T12:05:32;1.98;;;0.80;;
71639;SDS011;60912;48.968;10.124;2024-02-14T12:07:58;2.60;;;0.87;;
71639;SDS011;60912;48.968;10.124;2024-02-14T12:10:25;2.20;;;0.73;;
71639;SDS011;60912;48.968;10.124;2024-02-14T12:12:51;2.50;;;0.80;;
71639;SDS011;60912;48.968;10.124;2024-02-14T12:15:20;1.70;;;0.60;;
71639;SDS011;60912;48.968;10.124;2024-02-14T12:17:45;2.10;;;0.70;;
71639;SDS011;60912;48.968;10.124;2024-02-14T12:20:13;2.47;;;0.63;;
71639;SDS011;60912;48.968;10.124;2024-02-14T12:22:39;2.00;;;0.60;;
71639;SDS011;60912;48.968;10.124;2024-02-14T12:25:06;2.33;;;0.60;;
71639;SDS011;60912;48.968;10.124;2024-02-14T12:27:33;2.13;;;0.65;;
71639;SDS011;60912;48.968;10.124;2024-02-14T12:29:59;2.65;;;1.00;;
71639;SDS011;60912;48.968;10.124;2024-02-14T12:32:28;1.67;;;0.70;;
71639;SDS011;60912;48.968;10.124;2024-02-14T12:34:55;1.63;;;0.70;;
71639;SDS011;60912;48.968;10.124;2024-02-14T12:37:22;2.37;;;0.70;;
71639;SDS011;60912;48.968;10.124;2024-02-14T12:39:48;2.20;;;0.80;;
71639;SDS011;60912;48.968;10.124;2024-02-14T12:42:13;7.17;;;1.23;;
71639;SDS011;60912;48.968;10.124;2024-02-14T12:44:39;3.20;;;1.13;;
71639;SDS011;60912;48.968;10.124;2024-02-14T12:47:05;2.40;;;1.10;;
71639;SDS011;60912;48.968;10.124;2024-02-14T12:49:31;2.95;;;1.10;;
71639;SDS011;60912;48.968;10.124;2024-02-14T12:51:56;4.67;;;0.90;;
71639;SDS011;60912;48.968;10.124;2024-02-14T12:54:22;3.40;;;1.00;;
71639;SDS011;60912;48.968;10.124;2024-02-14T12:56:48;2.47;;;0.90;;
71639;SDS011;60912;48.968;10.124;2024-02-14T12:59:14;4.70;;;0.97;;
71639;SDS011;60912;48.968;10.124;2024-02-14T13:01:43;3.42;;;1.00;;
71639;SDS011;60912;48.968;10.124;2024-02-14T13:04:08;1.93;;;0.83;;
71639;SDS011;60912;48.968;10.124;2024-02-14T13:06:34;3.67;;;1.00;;
71639;SDS011;60912;48.968;10.124;2024-02-14T13:09:00;2.03;;;0.83;;
71639;SDS011;60912;48.968;10.124;2024-02-14T13:11:25;2.87;;;0.90;;
71639;SDS011;60912;48.968;10.124;2024-02-14T13:13:51;3.72;;;0.82;;
71639;SDS011;60912;48.968;10.124;2024-02-14T13:16:16;4.80;;;0.80;;
71639;SDS011;60912;48.968;10.124;2024-02-14T13:18:41;2.67;;;1.00;;
71639;SDS011;60912;48.968;10.124;2024-02-14T13:21:07;4.23;;;1.30;;
71639;SDS011;60912;48.968;10.124;2024-02-14T13:23:32;5.27;;;1.40;;
71639;SDS011;60912;48.968;10.124;2024-02-14T13:25:57;4.10;;;1.10;;
71639;SDS011;60912;48.968;10.124;2024-02-14T13:28:23;5.50;;;1.20;;
71639;SDS011;60912;48.968;10.124;2024-02-14T13:30:49;4.75;;;1.00;;
71639;SDS011;60912;48.968;10.124;2024-02-14T13:33:15;2.10;;;0.90;;
71639;SDS011;60912;48.968;10.124;2024-02-14T13:35:40;4.80;;;0.90;;
71639;SDS011;60912;48.968;10.124;2024-02-14T13:38:06;3.20;;;0.80;;
71639;SDS011;60912;48.968;10.124;2024-02-14T13:40:31;3.23;;;0.90;;
71639;SDS011;60912;48.968;10.124;2024-02-14T13:42:57;2.55;;;0.90;;
71639;SDS011;60912;48.968;10.124;2024-02-14T13:45:23;6.37;;;1.10;;
71639;SDS011;60912;48.968;10.124;2024-02-14T13:47:49;2.22;;;0.90;;
71639;SDS011;60912;48.968;10.124;2024-02-14T13:50:14;2.90;;;0.90;;
71639;SDS011;60912;48.968;10.124;2024-02-14T13:52:40;3.83;;;0.97;;
71639;SDS011;60912;48.968;10.124;2024-02-14T13:55:05;3.60;;;0.85;;
71639;SDS011;60912;48.968;10.124;2024-02-14T13:57:38;3.00;;;1.00;;
71639;SDS011;60912;48.968;10.124;2024-02-14T14:00:07;3.10;;;0.70;;
71639;SDS011;60912;48.968;10.124;2024-02-14T14:02:37;2.03;;;0.68;;
71639;SDS011;60912;48.968;10.124;2024-02-14T14:05:07;2.45;;;0.80;;
71639;SDS011;60912;48.968;10.124;2024-02-14T14:07:34;3.22;;;0.80;;
71639;SDS011;60912;48.968;10.124;2024-02-14T14:10:01;1.73;;;0.77;;
71639;SDS011;60912;48.968;10.124;2024-02-14T14:12:28;3.37;;;1.00;;
71639;SDS011;60912;48.968;10.124;2024-02-14T14:14:53;2.33;;;0.80;;
71639;SDS011;60912;48.968;10.124;2024-02-14T14:17:18;2.50;;;0.80;;
71639;SDS011;60912;48.968;10.124;2024-02-14T14:19:44;2.30;;;0.80;;
71639;SDS011;60912;48.968;10.124;2024-02-14T14:22:10;2.40;;;0.80;;
71639;SDS011;60912;48.968;10.124;2024-02-14T14:24:35;1.83;;;0.70;;
71639;SDS011;60912;48.968;10.124;2024-02-14T14:27:01;2.87;;;0.70;;
71639;SDS011;60912;48.968;10.124;2024-02-14T14:29:27;2.75;;;0.60;;